Capitol Logistics 316


KRFD
Chicago/Rockford International Airport
Rockford, Illinois, US
PANC
Ted Stevens Anchorage International Airport
Anchorage, Alaska, US

Route Details

Aircraft Information
Primary: Boeing 767-300BDSF
Backup: Not Available
Route Data
Distance: 2468nm
Sched. Duration: 6h 00m
Avg. Duration: 6h 26m (+27m)
Times Flown: 14
Recm'd Route: ODI J36 GEP MOT J483 VLN J475 YWV NCA11 REMBY WITTI4
Planned Altitude: 34,000ft
Origin Wx: KRFD 190118Z 28006KT 10SM SCT029 M04/M10 A3003 RMK AO2 T10391100 $
Dest. Wx: PANC 190131Z 34007KT 10SM -RA SCT010 BKN025 OVC050 01/M01 A2890 RMK AO2 P0001 T00111011
Notes:

Financial History
Total Freight: 1,354,373lbs
Average Load: 96,741lbs/flt
Fuel Used: 1,014,952lbs
Avg. Fuel Used: 72,497lbs/flt
Fuel Expense: $730,748
Avg. Fuel Expense: $52,196
Avg. Fuel Cost: $0.72/lbs
Total Gross Income: $2,803,608
Pilot Pay: $2,346
Total Expenses: $306,056
Total Revenue: $1,746,477
Average Revenue: $200,257.71